createdAt,value
2023-03-06T00:00:52.596Z,150854.38
2023-03-06T00:03:23.542Z,150851.81
2023-03-06T00:05:55.687Z,150871.13
2023-03-06T00:08:26.038Z,150872.41
2023-03-06T00:10:59.916Z,150876.25
2023-03-06T00:13:30.795Z,150877.53
2023-03-06T00:16:02.788Z,150876.25
2023-03-06T00:18:32.913Z,150886.56
2023-03-06T00:21:03.119Z,150882.69
2023-03-06T00:23:33.363Z,150877.53
2023-03-06T00:26:06.117Z,150871.13
2023-03-06T00:28:36.246Z,150868.53
2023-03-06T00:31:06.896Z,150871.13
2023-03-06T00:33:38.205Z,150858.25
2023-03-06T00:36:08.917Z,150856.97
2023-03-06T00:38:38.990Z,150854.38
2023-03-06T00:41:16.552Z,150856.97
2023-03-06T00:43:46.731Z,150854.38
2023-03-06T00:46:20.006Z,150849.22
2023-03-06T00:48:50.052Z,150844.09
2023-03-06T00:51:24.401Z,150840.22
2023-03-06T00:53:54.800Z,150846.69
2023-03-06T00:56:27.516Z,150842.81
2023-03-06T00:58:57.567Z,150840.22
2023-03-06T01:01:29.468Z,150838.94
2023-03-06T01:03:59.679Z,150838.94
2023-03-06T01:06:29.946Z,150849.22
2023-03-06T01:09:00.172Z,150840.22
2023-03-06T01:11:32.946Z,150845.34
2023-03-06T01:14:03.056Z,150836.41
2023-03-06T01:16:33.406Z,150829.94
2023-03-06T01:19:03.526Z,150833.78
2023-03-06T01:21:33.653Z,150826.09
2023-03-06T01:24:03.886Z,150811.94
2023-03-06T01:26:36.614Z,150813.22
2023-03-06T01:29:07.023Z,150818.38
2023-03-06T01:31:37.728Z,150823.50
2023-03-06T01:34:07.943Z,150818.38
2023-03-06T01:36:38.034Z,150813.22
2023-03-06T01:39:08.430Z,150818.38
2023-03-06T01:41:41.255Z,150813.22
2023-03-06T01:44:13.926Z,150810.63
2023-03-06T01:46:45.702Z,150813.22
2023-03-06T01:49:19.685Z,150823.50
2023-03-06T01:51:54.706Z,150820.97
2023-03-06T01:54:28.109Z,150819.63
2023-03-06T01:57:06.058Z,150808.09
2023-03-06T01:59:38.333Z,150808.09
2023-03-06T02:02:09.766Z,150805.50
2023-03-06T02:04:42.844Z,150801.66
2023-03-06T02:07:13.979Z,150806.81
2023-03-06T02:09:44.271Z,150797.81
2023-03-06T02:12:21.368Z,150804.22
2023-03-06T02:14:53.053Z,150802.94
2023-03-06T02:17:26.504Z,150791.34
2023-03-06T02:20:04.761Z,150800.34
2023-03-06T02:22:40.539Z,150804.22
2023-03-06T02:25:17.837Z,150801.66
2023-03-06T02:27:52.729Z,150811.94
2023-03-06T02:30:22.667Z,150805.50
2023-03-06T02:32:52.957Z,150800.34
2023-03-06T02:35:26.018Z,150802.94
2023-03-06T02:37:57.673Z,150800.34
2023-03-06T02:40:29.179Z,150806.81
2023-03-06T02:43:02.523Z,150808.09
2023-03-06T02:45:37.558Z,150808.09
2023-03-06T02:48:09.487Z,150806.81
2023-03-06T02:50:39.782Z,150805.50
2023-03-06T02:53:11.923Z,150793.94
2023-03-06T02:55:42.779Z,150796.53
2023-03-06T02:58:15.942Z,150806.81
2023-03-06T03:00:46.902Z,150808.09
2023-03-06T03:03:17.799Z,150797.81
2023-03-06T03:05:48.338Z,150797.81
2023-03-06T03:08:25.638Z,150795.19
2023-03-06T03:11:00.292Z,150805.50
2023-03-06T03:13:38.156Z,150815.78
2023-03-06T03:16:14.174Z,150791.34
2023-03-06T03:18:48.205Z,150784.91
2023-03-06T03:21:20.914Z,150782.38
2023-03-06T03:23:52.035Z,150772.09
2023-03-06T03:26:24.860Z,150770.75
2023-03-06T03:29:06.542Z,150764.34
2023-03-06T03:31:36.884Z,150761.75
2023-03-06T03:34:08.520Z,150760.47
2023-03-06T03:36:42.474Z,150761.75
2023-03-06T03:39:15.302Z,150754.06
2023-03-06T03:41:46.293Z,150756.63
2023-03-06T03:44:19.902Z,150754.06
2023-03-06T03:46:50.432Z,150754.06
2023-03-06T03:49:24.634Z,150761.75
2023-03-06T03:51:54.928Z,150759.22
2023-03-06T03:54:27.435Z,150759.22
2023-03-06T03:56:58.024Z,150748.91
2023-03-06T03:59:35.081Z,150757.94
2023-03-06T04:02:25.642Z,150755.34
2023-03-06T04:05:07.842Z,150774.63
2023-03-06T04:07:38.171Z,150769.50
2023-03-06T04:10:09.805Z,150775.91
2023-03-06T04:12:40.060Z,150770.75
2023-03-06T04:15:14.379Z,150782.38
2023-03-06T04:17:44.690Z,150792.66
2023-03-06T04:20:18.849Z,150802.94
2023-03-06T04:22:50.261Z,150808.09
2023-03-06T04:25:21.477Z,150808.09
2023-03-06T04:27:52.723Z,150800.34
2023-03-06T04:30:25.831Z,150799.06
2023-03-06T04:32:56.223Z,150792.66
2023-03-06T04:35:27.377Z,150786.19
2023-03-06T04:38:05.185Z,150777.22
2023-03-06T04:40:37.775Z,150782.38
2023-03-06T04:43:08.917Z,150775.91
2023-03-06T04:45:41.985Z,150773.38
2023-03-06T04:48:13.619Z,150782.38
2023-03-06T04:50:44.006Z,150787.50
2023-03-06T04:53:14.708Z,150783.66
2023-03-06T04:55:44.867Z,150779.78
2023-03-06T04:58:15.240Z,150774.63
2023-03-06T05:00:48.139Z,150782.38
2023-03-06T05:03:18.284Z,150799.06
2023-03-06T05:05:48.545Z,150824.78
2023-03-06T05:08:19.887Z,150845.34
2023-03-06T05:10:56.307Z,150844.09
2023-03-06T05:13:26.619Z,150842.81
2023-03-06T05:16:04.858Z,150842.81
2023-03-06T05:18:35.622Z,150846.69
2023-03-06T05:21:07.494Z,150849.22
2023-03-06T05:23:41.947Z,150851.81
2023-03-06T05:26:13.078Z,150856.97
2023-03-06T05:28:44.095Z,150847.94
2023-03-06T05:31:17.141Z,150859.50
2023-03-06T05:33:47.555Z,150867.25
2023-03-06T05:36:17.625Z,150865.97
2023-03-06T05:38:48.161Z,150855.69
2023-03-06T05:41:18.273Z,150862.09
2023-03-06T05:43:48.342Z,150862.09
2023-03-06T05:46:21.439Z,150856.97
2023-03-06T05:48:52.698Z,150858.25
2023-03-06T05:51:22.995Z,150877.53
2023-03-06T05:53:53.319Z,150876.25
2023-03-06T05:56:24.177Z,150880.13
2023-03-06T05:58:54.472Z,150885.28
2023-03-06T06:01:28.665Z,150892.97
2023-03-06T06:03:59.541Z,150900.72
2023-03-06T06:06:29.876Z,150907.13
2023-03-06T06:09:00.250Z,150914.88
2023-03-06T06:11:30.423Z,150920.00
2023-03-06T06:14:00.836Z,150931.56
2023-03-06T06:16:33.761Z,150936.72
2023-03-06T06:19:03.983Z,150940.59
2023-03-06T06:21:34.368Z,150953.44
2023-03-06T06:24:04.542Z,150956.03
2023-03-06T06:26:35.184Z,150968.91
2023-03-06T06:29:07.315Z,150977.88
2023-03-06T06:31:40.653Z,150985.63
2023-03-06T06:34:13.043Z,150990.78
2023-03-06T06:36:44.122Z,150998.50
2023-03-06T06:39:17.777Z,151012.66
2023-03-06T06:42:02.310Z,151016.50
2023-03-06T06:44:36.093Z,151031.94
2023-03-06T06:47:26.374Z,151049.97
2023-03-06T06:49:57.811Z,151070.56
2023-03-06T06:52:28.914Z,151101.50
2023-03-06T06:54:59.556Z,151132.38
2023-03-06T06:57:30.305Z,151149.09
2023-03-06T07:00:00.452Z,151159.38
2023-03-06T07:02:33.885Z,151176.16
2023-03-06T07:05:05.590Z,151201.91
2023-03-06T07:07:38.255Z,151227.66
2023-03-06T07:10:14.445Z,151249.56
2023-03-06T07:12:45.004Z,151271.44
2023-03-06T07:15:16.697Z,151292.03
2023-03-06T07:17:50.294Z,151294.66
2023-03-06T07:20:21.633Z,151313.97
2023-03-06T07:22:52.620Z,151338.44
2023-03-06T07:25:23.738Z,151357.78
2023-03-06T07:27:55.370Z,151377.09
2023-03-06T07:30:26.540Z,151397.72
2023-03-06T07:33:01.629Z,151424.75
2023-03-06T07:35:32.007Z,151446.69
2023-03-06T07:38:02.203Z,151469.84
2023-03-06T07:40:32.531Z,151493.06
2023-03-06T07:43:17.155Z,151511.13
2023-03-06T07:46:00.248Z,151545.94
2023-03-06T07:48:34.528Z,151562.66
2023-03-06T07:51:06.607Z,151597.47
2023-03-06T07:53:37.659Z,151631.00
2023-03-06T07:56:09.465Z,151670.97
2023-03-06T07:58:39.985Z,151689.06
2023-03-06T08:01:12.001Z,151699.38
2023-03-06T08:03:45.305Z,151687.78
2023-03-06T08:06:17.443Z,151686.44
2023-03-06T08:08:49.883Z,151663.28
2023-03-06T08:11:22.205Z,151649.09
2023-03-06T08:13:53.207Z,151650.34
2023-03-06T08:16:25.145Z,151642.59
2023-03-06T08:18:58.668Z,151659.41
2023-03-06T08:21:30.202Z,151721.28
2023-03-06T08:24:00.911Z,151748.38
2023-03-06T08:26:36.133Z,151797.41
2023-03-06T08:29:08.238Z,151789.66
2023-03-06T08:31:40.946Z,151825.81
2023-03-06T08:34:16.392Z,151814.16
2023-03-06T08:36:47.253Z,151838.69
2023-03-06T08:39:17.618Z,151847.78
2023-03-06T08:41:49.303Z,151890.38
2023-03-06T08:44:19.799Z,151944.56
2023-03-06T08:46:50.183Z,151971.66
2023-03-06T08:49:23.661Z,151993.63
2023-03-06T08:51:53.977Z,151980.69
2023-03-06T08:54:24.353Z,151998.78
2023-03-06T08:56:54.535Z,151994.91
2023-03-06T08:59:25.336Z,152019.44
2023-03-06T09:01:55.712Z,152037.53
2023-03-06T09:04:28.690Z,152060.72
2023-03-06T09:06:58.841Z,152102.09
2023-03-06T09:09:28.947Z,152096.91
2023-03-06T09:11:59.056Z,152099.47
2023-03-06T09:14:29.155Z,152091.75
2023-03-06T09:16:59.320Z,152082.72
2023-03-06T09:19:32.179Z,152116.28
2023-03-06T09:22:02.330Z,152166.66
2023-03-06T09:24:32.670Z,152178.25
2023-03-06T09:27:02.973Z,152178.25
2023-03-06T09:29:33.217Z,152195.03
2023-03-06T09:32:03.443Z,152200.25
2023-03-06T09:34:36.374Z,152286.78
2023-03-06T09:37:06.685Z,152228.63
2023-03-06T09:39:36.815Z,152191.19
2023-03-06T09:42:15.127Z,152249.28
2023-03-06T09:44:47.639Z,152363.03
2023-03-06T09:47:40.743Z,152414.72
2023-03-06T09:50:31.419Z,152341.03
2023-03-06T09:53:30.683Z,152396.59
2023-03-06T09:56:06.262Z,152357.81
2023-03-06T09:58:45.293Z,152322.94
2023-03-06T10:01:21.797Z,152281.59
2023-03-06T10:03:57.367Z,152186.03
2023-03-06T10:06:33.203Z,152202.81
2023-03-06T10:09:08.483Z,152171.81
2023-03-06T10:11:42.678Z,152182.16
2023-03-06T10:14:24.104Z,152186.03
2023-03-06T10:16:54.253Z,152231.22
2023-03-06T10:19:25.157Z,152196.34
2023-03-06T10:22:03.057Z,152202.81
2023-03-06T10:24:51.552Z,152204.06
2023-03-06T10:27:38.159Z,152264.84
2023-03-06T10:30:27.084Z,152246.72
2023-03-06T10:32:59.864Z,152285.50
2023-03-06T10:35:34.443Z,152315.22
2023-03-06T10:38:19.005Z,152333.31
2023-03-06T10:40:58.097Z,152360.44
2023-03-06T10:43:29.245Z,152412.09
2023-03-06T10:45:59.495Z,152491.00
2023-03-06T10:48:31.073Z,152493.63
2023-03-06T10:51:20.530Z,152516.91
2023-03-06T10:53:59.692Z,152492.34
2023-03-06T10:56:32.973Z,152488.44
2023-03-06T10:59:11.667Z,152474.22
2023-03-06T11:01:43.213Z,152630.69
2023-03-06T11:04:29.947Z,152638.41
2023-03-06T11:07:18.256Z,152563.41
2023-03-06T11:10:03.990Z,152567.31
2023-03-06T11:12:35.566Z,152625.53
2023-03-06T11:15:21.277Z,152701.81
2023-03-06T11:18:01.412Z,152810.50
2023-03-06T11:20:50.480Z,152822.13
2023-03-06T11:23:24.632Z,152907.56
2023-03-06T11:25:59.583Z,153029.28
2023-03-06T11:28:31.832Z,152955.47
2023-03-06T11:31:06.831Z,152779.44
2023-03-06T11:33:42.262Z,152699.25
2023-03-06T11:36:18.418Z,152696.63
2023-03-06T11:38:52.648Z,152727.66
2023-03-06T11:41:36.525Z,152722.50
2023-03-06T11:44:16.885Z,152734.16
2023-03-06T11:46:52.798Z,152703.09
2023-03-06T11:49:27.250Z,152647.47
2023-03-06T11:51:59.668Z,152668.16
2023-03-06T11:54:30.171Z,152633.25
2023-03-06T11:57:07.451Z,152725.09
2023-03-06T12:00:02.857Z,152800.13
2023-03-06T12:02:52.324Z,152857.06
2023-03-06T12:05:36.691Z,152882.97
2023-03-06T12:08:33.601Z,152824.72
2023-03-06T12:11:15.076Z,152872.63
2023-03-06T12:14:08.314Z,152836.34
2023-03-06T12:16:51.689Z,152738.00
2023-03-06T12:19:33.481Z,152775.56
2023-03-06T12:22:18.884Z,152734.16
2023-03-06T12:25:04.063Z,152844.13
2023-03-06T12:27:45.908Z,152776.84
2023-03-06T12:30:46.049Z,152774.28
2023-03-06T12:33:25.681Z,152849.31
2023-03-06T12:36:11.599Z,152858.38
2023-03-06T12:39:10.444Z,152837.69
2023-03-06T12:41:53.319Z,152810.50
2023-03-06T12:44:56.145Z,152826.00
2023-03-06T12:47:31.250Z,152831.19
2023-03-06T12:50:06.484Z,152807.94
2023-03-06T12:52:38.359Z,152859.66
2023-03-06T12:55:10.831Z,152872.63
2023-03-06T12:57:41.878Z,152884.25
2023-03-06T13:00:38.022Z,152875.19
2023-03-06T13:03:20.396Z,152888.16
2023-03-06T13:06:09.271Z,152897.22
2023-03-06T13:09:04.911Z,152894.59
2023-03-06T13:12:05.895Z,152814.38
2023-03-06T13:14:58.445Z,152695.34
2023-03-06T13:17:35.471Z,152750.97
2023-03-06T13:20:31.873Z,152757.44
2023-03-06T13:23:23.899Z,152748.41
2023-03-06T13:25:56.895Z,152756.16
2023-03-06T13:28:45.064Z,152683.69
2023-03-06T13:31:26.898Z,152677.22
2023-03-06T13:34:00.956Z,152685.00
2023-03-06T13:36:34.768Z,152666.88
2023-03-06T13:39:08.746Z,152665.59
2023-03-06T13:41:57.779Z,152642.31
2023-03-06T13:44:44.959Z,152598.34
2023-03-06T13:48:10.582Z,152562.16
2023-03-06T13:50:38.177Z,152551.81
2023-03-06T13:53:44.691Z,152575.03
2023-03-06T13:56:30.478Z,152563.41
2023-03-06T13:59:20.354Z,152563.41
2023-03-06T14:02:01.513Z,152546.63
2023-03-06T14:04:41.780Z,152528.50
2023-03-06T14:07:41.647Z,152500.06
2023-03-06T14:10:24.248Z,152500.06
2023-03-06T14:13:05.232Z,152484.56
2023-03-06T14:15:46.348Z,152476.81
2023-03-06T14:18:23.956Z,152441.81
2023-03-06T14:20:59.586Z,152471.66
2023-03-06T14:23:35.441Z,152413.44
2023-03-06T14:26:17.596Z,152401.75
2023-03-06T14:28:49.398Z,152388.88
2023-03-06T14:31:24.203Z,152346.22
2023-03-06T14:33:56.862Z,152339.75
2023-03-06T14:36:33.733Z,152307.44
2023-03-06T14:39:08.948Z,152325.53
2023-03-06T14:41:40.237Z,152334.59
2023-03-06T14:44:12.244Z,152308.75
2023-03-06T14:46:45.047Z,152313.94
2023-03-06T14:49:16.796Z,152321.66
2023-03-06T14:51:49.266Z,152298.38
2023-03-06T14:54:22.861Z,152289.38
2023-03-06T14:56:57.019Z,152293.22
2023-03-06T14:59:34.324Z,152294.53
2023-03-06T15:02:14.304Z,152279.03
2023-03-06T15:04:47.387Z,152268.66
2023-03-06T15:07:20.788Z,152271.28
2023-03-06T15:09:53.136Z,152270.00
2023-03-06T15:12:40.006Z,152258.34
2023-03-06T15:15:29.457Z,152254.50
2023-03-06T15:18:02.540Z,152231.22
2023-03-06T15:20:45.669Z,152222.19
2023-03-06T15:23:25.332Z,152201.53
2023-03-06T15:25:59.408Z,152209.25
2023-03-06T15:28:35.408Z,152213.13
2023-03-06T15:31:24.133Z,152188.59
2023-03-06T15:34:18.784Z,152184.69
2023-03-06T15:36:50.264Z,152178.25
2023-03-06T15:39:34.608Z,152176.97
2023-03-06T15:42:06.419Z,152161.50
2023-03-06T15:44:36.612Z,152160.16
2023-03-06T15:47:09.716Z,152130.47
2023-03-06T15:49:43.345Z,152105.91
2023-03-06T15:52:13.605Z,152102.09
2023-03-06T15:54:43.764Z,152105.91
2023-03-06T15:57:22.357Z,152091.75
2023-03-06T15:59:56.151Z,152078.81
2023-03-06T16:02:28.475Z,152080.09
2023-03-06T16:05:02.659Z,152080.09
2023-03-06T16:07:32.748Z,152074.94
2023-03-06T16:10:03.744Z,152068.50
2023-03-06T16:12:34.238Z,152063.34
2023-03-06T16:15:06.286Z,152054.28
2023-03-06T16:17:36.550Z,152064.63
2023-03-06T16:20:17.695Z,152059.44
2023-03-06T16:22:48.567Z,152053.00
2023-03-06T16:25:19.970Z,152043.97
2023-03-06T16:27:57.004Z,152040.09
2023-03-06T16:30:38.569Z,152040.09
2023-03-06T16:33:08.879Z,152041.38
2023-03-06T16:35:44.516Z,152025.88
2023-03-06T16:38:15.822Z,152024.59
2023-03-06T16:40:46.188Z,152022.00
2023-03-06T16:43:16.698Z,152016.84
2023-03-06T16:45:47.222Z,152001.34
2023-03-06T16:48:21.214Z,151991.03
2023-03-06T16:50:53.995Z,151996.19
2023-03-06T16:53:24.071Z,151979.41
2023-03-06T16:55:54.272Z,151969.09
2023-03-06T16:58:24.457Z,151957.44
2023-03-06T17:00:55.563Z,151947.13
2023-03-06T17:03:25.962Z,151945.84
2023-03-06T17:05:58.753Z,151934.25
2023-03-06T17:08:29.036Z,151921.34
2023-03-06T17:10:59.507Z,151912.28
2023-03-06T17:13:32.625Z,151892.94
2023-03-06T17:16:02.763Z,151887.75
2023-03-06T17:18:33.594Z,151887.75
2023-03-06T17:21:07.096Z,151869.72
2023-03-06T17:23:37.365Z,151854.22
2023-03-06T17:26:12.568Z,151845.16
2023-03-06T17:28:43.523Z,151830.97
2023-03-06T17:31:17.735Z,151821.94
2023-03-06T17:33:48.421Z,151810.34
2023-03-06T17:36:22.134Z,151790.97
2023-03-06T17:38:52.302Z,151775.44
2023-03-06T17:41:24.533Z,151763.84
2023-03-06T17:43:55.729Z,151732.91
2023-03-06T17:46:27.070Z,151717.44
2023-03-06T17:48:58.238Z,151692.94
2023-03-06T17:51:31.208Z,151680.03
2023-03-06T17:54:01.425Z,151664.53
2023-03-06T17:56:31.634Z,151654.22
2023-03-06T17:59:02.422Z,151640.03
2023-03-06T18:01:33.103Z,151636.16
2023-03-06T18:04:04.057Z,151618.16
2023-03-06T18:06:37.249Z,151615.53
2023-03-06T18:09:10.241Z,151594.91
2023-03-06T18:11:41.553Z,151570.44
2023-03-06T18:14:12.457Z,151552.34
2023-03-06T18:16:42.605Z,151530.47
2023-03-06T18:19:14.484Z,151515.00
2023-03-06T18:21:49.962Z,151493.06
2023-03-06T18:24:20.755Z,151464.69
2023-03-06T18:26:50.897Z,151451.84
2023-03-06T18:29:21.182Z,151431.22
2023-03-06T18:31:51.604Z,151392.56
2023-03-06T18:34:22.208Z,151371.94
2023-03-06T18:36:55.789Z,151352.63
2023-03-06T18:39:26.599Z,151328.16
2023-03-06T18:41:56.706Z,151310.09
2023-03-06T18:44:26.915Z,151303.66
2023-03-06T18:46:57.083Z,151312.66
2023-03-06T18:49:27.305Z,151310.09
2023-03-06T18:52:00.084Z,151317.84
2023-03-06T18:54:30.432Z,151304.94
2023-03-06T18:57:00.946Z,151310.09
2023-03-06T18:59:31.049Z,151297.19
2023-03-06T19:02:01.337Z,151298.50
2023-03-06T19:04:32.104Z,151284.34
2023-03-06T19:07:08.285Z,151293.38
2023-03-06T19:09:38.552Z,151284.34
2023-03-06T19:12:09.547Z,151252.13
2023-03-06T19:14:40.046Z,151271.44
2023-03-06T19:17:10.144Z,151271.44
2023-03-06T19:19:40.268Z,151254.72
2023-03-06T19:22:13.435Z,151262.41
2023-03-06T19:24:43.690Z,151267.56
2023-03-06T19:27:13.880Z,151275.31
2023-03-06T19:29:44.393Z,151292.03
2023-03-06T19:32:14.789Z,151298.50
2023-03-06T19:34:45.174Z,151298.50
2023-03-06T19:37:18.378Z,151295.91
2023-03-06T19:39:48.656Z,151281.75
2023-03-06T19:42:18.779Z,151267.56
2023-03-06T19:44:49.000Z,151272.72
2023-03-06T19:47:19.175Z,151275.31
2023-03-06T19:49:49.307Z,151288.22
2023-03-06T19:52:23.899Z,151294.66
2023-03-06T19:54:54.108Z,151301.06
2023-03-06T19:57:24.213Z,151304.94
2023-03-06T19:59:54.807Z,151306.22
2023-03-06T20:02:26.699Z,151315.25
2023-03-06T20:04:57.087Z,151306.22
2023-03-06T20:07:29.875Z,151302.34
2023-03-06T20:10:00.932Z,151306.22
2023-03-06T20:12:32.154Z,151333.28
2023-03-06T20:15:02.769Z,151338.44
2023-03-06T20:17:33.351Z,151330.69
2023-03-06T20:20:03.721Z,151316.53
2023-03-06T20:22:36.500Z,151307.50
2023-03-06T20:25:07.499Z,151312.66
2023-03-06T20:27:37.850Z,151297.19
2023-03-06T20:30:09.400Z,151276.59
2023-03-06T20:32:39.960Z,151283.03
2023-03-06T20:35:11.508Z,151284.34
2023-03-06T20:37:45.118Z,151286.88
2023-03-06T20:40:16.064Z,151285.63
2023-03-06T20:42:46.409Z,151279.19
2023-03-06T20:45:16.488Z,151271.44
2023-03-06T20:47:47.504Z,151267.56
2023-03-06T20:50:18.203Z,151265.00
2023-03-06T20:52:50.916Z,151258.53
2023-03-06T20:55:21.425Z,151261.16
2023-03-06T20:57:52.874Z,151263.75
2023-03-06T21:00:23.753Z,151257.25
2023-03-06T21:02:53.994Z,151253.41
2023-03-06T21:05:24.201Z,151245.69
2023-03-06T21:07:58.372Z,151261.16
2023-03-06T21:10:29.311Z,151268.91
2023-03-06T21:12:59.934Z,151262.41
2023-03-06T21:15:31.184Z,151266.28
2023-03-06T21:18:02.029Z,151261.16
2023-03-06T21:20:32.142Z,151262.41
2023-03-06T21:23:05.045Z,151258.53
2023-03-06T21:25:37.081Z,151259.88
2023-03-06T21:28:07.327Z,151268.91
2023-03-06T21:30:37.621Z,151267.56
2023-03-06T21:33:10.831Z,151272.72
2023-03-06T21:35:41.842Z,151277.88
2023-03-06T21:38:15.622Z,151265.00
2023-03-06T21:40:47.745Z,151275.31
2023-03-06T21:43:18.133Z,151280.47
2023-03-06T21:45:48.981Z,151285.63
2023-03-06T21:48:19.281Z,151279.19
2023-03-06T21:50:49.362Z,151281.75
2023-03-06T21:53:22.089Z,151293.38
2023-03-06T21:55:52.395Z,151284.34
2023-03-06T21:58:22.495Z,151293.38
2023-03-06T22:00:52.754Z,151344.88
2023-03-06T22:03:23.000Z,151334.56
2023-03-06T22:05:54.023Z,151328.16
2023-03-06T22:08:28.311Z,151328.16
2023-03-06T22:10:58.439Z,151324.28
2023-03-06T22:13:28.608Z,151317.84
2023-03-06T22:15:58.847Z,151313.97
2023-03-06T22:18:29.105Z,151315.25
2023-03-06T22:20:59.348Z,151310.09
2023-03-06T22:23:32.498Z,151323.00
2023-03-06T22:26:05.449Z,151333.28
2023-03-06T22:28:36.254Z,151406.75
2023-03-06T22:31:08.084Z,151485.34
2023-03-06T22:33:38.868Z,151587.16
2023-03-06T22:36:11.695Z,151610.38
2023-03-06T22:38:46.680Z,151560.13
2023-03-06T22:41:18.416Z,151536.91
2023-03-06T22:43:48.815Z,151505.97
2023-03-06T22:46:20.246Z,151487.91
2023-03-06T22:48:50.345Z,151475.00
2023-03-06T22:51:22.435Z,151460.88
2023-03-06T22:53:55.536Z,151449.25
2023-03-06T22:56:26.494Z,151437.66
2023-03-06T22:58:57.840Z,151423.47
2023-03-06T23:01:29.949Z,151415.72
2023-03-06T23:04:01.831Z,151413.16
2023-03-06T23:06:33.866Z,151426.06
2023-03-06T23:09:09.374Z,151424.75
2023-03-06T23:11:58.021Z,151426.06
2023-03-06T23:14:49.693Z,151422.19
2023-03-06T23:17:38.178Z,151432.50
2023-03-06T23:20:26.953Z,151447.97
2023-03-06T23:23:16.069Z,151472.44
2023-03-06T23:25:49.056Z,151515.00
2023-03-06T23:28:19.322Z,151477.59
2023-03-06T23:30:49.512Z,151449.25
2023-03-06T23:33:19.626Z,151440.22
2023-03-06T23:35:49.759Z,151433.78
2023-03-06T23:38:20.020Z,151431.22
2023-03-06T23:40:52.778Z,151419.59
2023-03-06T23:43:22.940Z,151410.56
2023-03-06T23:45:56.580Z,151405.41
2023-03-06T23:48:27.313Z,151396.38
2023-03-06T23:50:58.366Z,151387.41
2023-03-06T23:53:28.543Z,151377.09
2023-03-06T23:56:01.337Z,151373.22
2023-03-06T23:58:31.425Z,151374.50
